Time;durP1;ratioP1;P1;durP2;ratioP2;P2;SDS_P1;SDS_P2;PMS_P1;PMS_P2;Temp;Humidity;BMP_temperature;BMP_pressure;BME280_temperature;BME280_humidity;BME280_pressure;Samples;Min_cycle;Max_cycle;Signal;HPM_P1;HPM_P2
2021/12/28 00:01:05;;;;;;;16.77;7.90;;;;;;;8.49;100.00;99056.50;4969167;28;20219;-62
2021/12/28 00:03:34;;;;;;;15.27;8.37;;;;;;;8.48;100.00;99054.88;4955710;28;20277;-62
2021/12/28 00:06:02;;;;;;;13.97;7.40;;;;;;;8.53;100.00;99057.81;4970908;28;20238;-62
2021/12/28 00:08:30;;;;;;;14.57;7.87;;;;;;;8.48;100.00;99060.16;4970232;28;20711;-62
2021/12/28 00:10:58;;;;;;;13.57;7.17;;;;;;;8.44;100.00;99061.50;4969195;28;20309;-63
2021/12/28 00:13:27;;;;;;;13.87;7.07;;;;;;;8.47;100.00;99055.03;4967774;28;20305;-61
2021/12/28 00:16:19;;;;;;;17.00;7.03;;;;;;;8.53;100.00;99044.59;4970135;28;20226;-62
2021/12/28 00:18:46;;;;;;;15.93;6.13;;;;;;;8.50;100.00;99046.78;4953715;28;20230;-62
2021/12/28 00:21:14;;;;;;;15.40;6.60;;;;;;;8.46;100.00;99033.06;4971325;28;20214;-62
2021/12/28 00:23:42;;;;;;;20.53;7.30;;;;;;;8.48;100.00;99040.84;4969689;28;20206;-62
2021/12/28 00:26:12;;;;;;;22.23;7.37;;;;;;;8.60;100.00;99045.59;4969564;28;20261;-62
2021/12/28 00:28:41;;;;;;;18.30;6.60;;;;;;;8.58;100.00;99047.56;4971014;28;20218;-63
2021/12/28 00:31:11;;;;;;;21.97;7.13;;;;;;;8.58;100.00;99039.66;4970757;28;20215;-62
2021/12/28 00:33:39;;;;;;;16.47;5.67;;;;;;;8.62;100.00;99048.88;4969684;28;20225;-63
2021/12/28 00:36:07;;;;;;;14.40;5.77;;;;;;;8.67;100.00;99035.16;4970720;28;20314;-61
2021/12/28 00:38:35;;;;;;;16.33;5.97;;;;;;;8.71;100.00;99036.44;4970663;28;20696;-63
2021/12/28 00:41:05;;;;;;;13.43;5.57;;;;;;;8.70;100.00;99034.00;4970066;28;20274;-62
2021/12/28 00:43:34;;;;;;;17.73;5.60;;;;;;;8.72;100.00;99030.19;4969330;28;20297;-62
2021/12/28 00:46:03;;;;;;;20.67;5.33;;;;;;;8.72;100.00;99027.53;4972576;28;20217;-64
2021/12/28 00:48:33;;;;;;;19.97;5.27;;;;;;;8.80;100.00;99034.59;4969470;28;20207;-61
2021/12/28 00:51:01;;;;;;;13.60;4.40;;;;;;;8.88;100.00;99035.38;4968455;28;20286;-62
2021/12/28 00:53:29;;;;;;;19.63;4.77;;;;;;;8.77;100.00;99029.69;4969648;28;20237;-63
2021/12/28 00:55:57;;;;;;;16.50;5.47;;;;;;;8.73;100.00;99034.47;4971045;28;20676;-61
2021/12/28 00:58:25;;;;;;;14.07;4.93;;;;;;;8.75;100.00;99036.94;4973755;28;20206;-62
2021/12/28 01:00:52;;;;;;;16.43;5.40;;;;;;;8.77;100.00;99029.69;4970747;28;20221;-63
2021/12/28 01:03:21;;;;;;;10.03;4.43;;;;;;;8.82;100.00;99027.34;4974930;28;20269;-62
2021/12/28 01:05:50;;;;;;;14.70;4.83;;;;;;;8.77;100.00;99027.88;4974483;28;20317;-62
2021/12/28 01:08:18;;;;;;;15.03;4.83;;;;;;;8.75;100.00;99021.91;4973983;28;20233;-62
2021/12/28 01:10:49;;;;;;;18.00;5.20;;;;;;;8.75;100.00;99010.53;4974681;28;20391;-61
2021/12/28 01:13:18;;;;;;;16.80;4.53;;;;;;;8.73;100.00;99005.41;4970629;28;20789;-62
2021/12/28 01:15:46;;;;;;;16.17;5.07;;;;;;;8.76;100.00;99009.53;4973293;28;20218;-61
2021/12/28 01:18:14;;;;;;;34.23;11.67;;;;;;;8.75;100.00;98999.94;4971552;28;20218;-62
2021/12/28 01:20:43;;;;;;;29.30;7.60;;;;;;;8.77;100.00;99012.00;4973985;28;20469;-61
2021/12/28 01:23:13;;;;;;;17.27;4.80;;;;;;;8.73;100.00;98999.28;4973603;28;20215;-63
2021/12/28 01:25:41;;;;;;;38.10;5.17;;;;;;;8.78;100.00;98994.34;4972325;28;20276;-64
2021/12/28 01:28:09;;;;;;;16.10;4.20;;;;;;;8.82;100.00;99004.38;4971373;28;20246;-63
2021/12/28 01:30:40;;;;;;;17.23;4.00;;;;;;;8.85;100.00;98995.28;4971692;28;20294;-63
2021/12/28 01:33:08;;;;;;;14.70;3.83;;;;;;;8.88;100.00;98989.66;4971056;28;20239;-62
2021/12/28 01:35:37;;;;;;;19.60;4.47;;;;;;;8.83;100.00;98991.97;4959145;28;20216;-62
2021/12/28 01:38:05;;;;;;;17.07;4.20;;;;;;;8.87;100.00;98988.84;4972045;28;20216;-63
2021/12/28 01:40:37;;;;;;;17.87;4.30;;;;;;;8.88;100.00;98981.72;4971129;28;20317;-64
2021/12/28 01:43:10;;;;;;;16.27;4.03;;;;;;;8.86;100.00;98981.06;4971068;28;20238;-62
2021/12/28 01:45:45;;;;;;;14.23;3.70;;;;;;;8.82;100.00;98971.84;4972912;28;20740;-60
2021/12/28 01:48:15;;;;;;;13.20;4.00;;;;;;;8.82;100.00;98975.28;4973674;28;20293;-62
2021/12/28 01:50:44;;;;;;;17.10;3.90;;;;;;;8.85;100.00;98974.13;4972468;28;20641;-63
2021/12/28 01:53:12;;;;;;;16.47;3.83;;;;;;;8.86;100.00;98975.78;4971242;28;20311;-63
2021/12/28 01:55:45;;;;;;;16.17;5.13;;;;;;;8.75;100.00;98969.06;4962541;28;20303;-62
2021/12/28 01:58:13;;;;;;;11.03;4.00;;;;;;;8.73;100.00;98967.56;4972306;28;20253;-62
2021/12/28 02:00:42;;;;;;;13.83;4.13;;;;;;;8.75;100.00;98976.16;4973564;28;20911;-62
2021/12/28 02:03:15;;;;;;;14.37;4.67;;;;;;;8.77;100.00;98979.47;4970694;28;20653;-61
2021/12/28 02:05:43;;;;;;;17.10;4.40;;;;;;;8.72;100.00;98976.50;4972640;28;20329;-62
2021/12/28 02:08:13;;;;;;;19.37;4.43;;;;;;;8.66;100.00;98976.22;4971280;28;20715;-61
2021/12/28 02:10:45;;;;;;;19.27;4.60;;;;;;;8.74;100.00;98971.88;4972928;28;20206;-62
2021/12/28 02:13:13;;;;;;;20.83;4.27;;;;;;;8.76;100.00;98965.44;4973242;28;20305;-62
2021/12/28 02:15:41;;;;;;;11.57;3.47;;;;;;;8.73;100.00;98959.66;4972876;28;20233;-62
2021/12/28 02:18:12;;;;;;;13.30;3.57;;;;;;;8.72;100.00;98958.00;4967860;28;20214;-62
2021/12/28 02:20:42;;;;;;;17.80;4.23;;;;;;;8.69;100.00;98953.91;4971291;28;20266;-62
2021/12/28 02:23:09;;;;;;;23.93;10.77;;;;;;;8.66;100.00;98947.13;4971868;28;20242;-62
2021/12/28 02:25:38;;;;;;;24.50;7.03;;;;;;;8.66;100.00;98943.66;4974291;28;20369;-60
2021/12/28 02:28:08;;;;;;;20.33;4.10;;;;;;;8.63;100.00;98931.63;4973441;28;20218;-61
2021/12/28 02:30:38;;;;;;;16.33;3.80;;;;;;;8.62;100.00;98932.63;4971513;28;20249;-61
2021/12/28 02:33:06;;;;;;;20.57;4.20;;;;;;;8.61;100.00;98928.34;4970697;28;20297;-61
2021/12/28 02:35:34;;;;;;;15.53;3.20;;;;;;;8.56;100.00;98917.47;4971116;28;20309;-61
2021/12/28 02:38:05;;;;;;;16.30;4.10;;;;;;;8.58;100.00;98914.66;4972619;28;20578;-61
2021/12/28 02:40:34;;;;;;;23.03;4.60;;;;;;;8.53;100.00;98911.72;4972983;28;20791;-61
2021/12/28 02:43:04;;;;;;;14.97;3.43;;;;;;;8.50;100.00;98907.59;4970513;28;20222;-62
2021/12/28 02:45:36;;;;;;;19.17;4.20;;;;;;;8.49;100.00;98905.94;4964667;28;20215;-61
2021/12/28 02:48:04;;;;;;;17.73;3.33;;;;;;;8.56;100.00;98911.34;4961445;28;20276;-61
2021/12/28 02:50:35;;;;;;;16.03;3.27;;;;;;;8.54;100.00;98906.22;4970225;28;20215;-61
2021/12/28 02:53:04;;;;;;;14.73;4.03;;;;;;;8.51;100.00;98909.25;4972103;28;20210;-62
2021/12/28 02:55:33;;;;;;;17.10;3.70;;;;;;;8.55;100.00;98897.31;4969278;28;20672;-61
2021/12/28 02:58:05;;;;;;;18.23;4.20;;;;;;;8.54;100.00;98898.31;4975919;28;20306;-61
2021/12/28 03:00:35;;;;;;;17.07;3.27;;;;;;;8.58;100.00;98888.22;4975165;28;20219;-63
2021/12/28 03:03:07;;;;;;;16.77;3.73;;;;;;;8.59;100.00;98882.78;4971018;28;20707;-62
2021/12/28 03:05:36;;;;;;;14.33;2.87;;;;;;;8.64;100.00;98876.97;4972694;28;20211;-62
2021/12/28 03:08:06;;;;;;;11.70;2.97;;;;;;;8.63;100.00;98876.13;4971869;28;20253;-61
2021/12/28 03:10:34;;;;;;;13.80;2.80;;;;;;;8.64;100.00;98880.44;4971432;28;20207;-61
2021/12/28 03:13:05;;;;;;;13.77;2.93;;;;;;;8.59;100.00;98866.94;4970258;28;20322;-61
2021/12/28 03:15:32;;;;;;;15.87;3.23;;;;;;;8.62;100.00;98865.72;4971094;28;20333;-58
2021/12/28 03:18:01;;;;;;;15.57;2.70;;;;;;;8.61;100.00;98859.66;4971976;28;20221;-62
2021/12/28 03:20:29;;;;;;;20.47;3.47;;;;;;;8.67;100.00;98851.03;4969362;28;20254;-62
2021/12/28 03:22:57;;;;;;;13.07;2.40;;;;;;;8.70;100.00;98846.38;4970684;28;20297;-62
2021/12/28 03:25:26;;;;;;;10.30;2.13;;;;;;;8.70;100.00;98838.47;4969195;28;20237;-62
2021/12/28 03:27:54;;;;;;;15.40;3.37;;;;;;;8.75;100.00;98830.81;4970098;28;20333;-62
2021/12/28 03:30:21;;;;;;;16.07;2.40;;;;;;;8.82;100.00;98826.47;4971895;28;20207;-62
2021/12/28 03:32:51;;;;;;;13.07;3.10;;;;;;;8.77;100.00;98824.38;4969478;28;20220;-62
2021/12/28 03:35:19;;;;;;;15.17;2.63;;;;;;;8.75;100.00;98825.53;4968890;28;20530;-62
2021/12/28 03:37:47;;;;;;;15.20;2.60;;;;;;;8.80;100.00;98824.00;4968648;28;20669;-62
2021/12/28 03:40:16;;;;;;;10.27;2.20;;;;;;;8.81;100.00;98819.53;4970899;28;20227;-62
2021/12/28 03:42:45;;;;;;;15.87;2.73;;;;;;;8.82;100.00;98818.53;4971826;28;20216;-62
2021/12/28 03:45:13;;;;;;;12.17;2.17;;;;;;;8.74;100.00;98810.69;4969048;28;20313;-61
2021/12/28 03:47:41;;;;;;;9.53;2.73;;;;;;;8.83;100.00;98805.16;4970131;28;20237;-62
2021/12/28 03:50:12;;;;;;;14.70;2.93;;;;;;;8.80;100.00;98799.38;4970967;28;20640;-62
2021/12/28 03:52:40;;;;;;;12.47;2.43;;;;;;;8.73;100.00;98803.75;4968724;28;20226;-62
2021/12/28 03:55:09;;;;;;;9.70;2.30;;;;;;;8.76;100.00;98800.75;4972646;28;20211;-62
2021/12/28 03:57:39;;;;;;;12.70;2.40;;;;;;;8.74;100.00;98790.34;4969606;28;20628;-62
2021/12/28 04:00:12;;;;;;;14.60;2.73;;;;;;;8.73;100.00;98790.53;4969631;28;20471;-61
2021/12/28 04:02:40;;;;;;;11.53;2.80;;;;;;;8.69;100.00;98790.06;4969048;28;20210;-62
2021/12/28 04:05:09;;;;;;;15.93;2.10;;;;;;;8.77;100.00;98786.53;4970764;28;20218;-62
2021/12/28 04:07:37;;;;;;;13.83;2.60;;;;;;;8.78;100.00;98786.38;4971924;28;20350;-62
2021/12/28 04:10:08;;;;;;;10.20;2.43;;;;;;;8.73;100.00;98786.06;4969961;28;20221;-62
2021/12/28 04:12:36;;;;;;;9.57;1.83;;;;;;;8.74;100.00;98784.25;4970546;28;20238;-62
2021/12/28 04:15:06;;;;;;;14.63;3.23;;;;;;;8.73;100.00;98793.16;4970468;28;20210;-62
2021/12/28 04:17:37;;;;;;;10.73;2.27;;;;;;;8.71;100.00;98795.97;4968448;28;20208;-62
2021/12/28 04:20:09;;;;;;;10.07;1.87;;;;;;;8.58;100.00;98796.59;4971684;28;20237;-62
2021/12/28 04:22:37;;;;;;;13.33;2.30;;;;;;;8.64;100.00;98802.97;4963964;28;20221;-62
2021/12/28 04:25:06;;;;;;;8.03;1.83;;;;;;;8.57;100.00;98791.47;4970892;28;20241;-62
2021/12/28 04:27:34;;;;;;;11.27;2.03;;;;;;;8.61;100.00;98793.59;4970682;28;20239;-61
2021/12/28 04:30:04;;;;;;;15.10;2.00;;;;;;;8.52;100.00;98799.13;4968660;28;20219;-62
2021/12/28 04:32:31;;;;;;;12.13;2.47;;;;;;;8.60;100.00;98797.25;4971794;28;20202;-61
2021/12/28 04:35:00;;;;;;;11.23;2.40;;;;;;;8.61;100.00;98793.59;4975378;28;20293;-61
2021/12/28 04:37:31;;;;;;;13.97;2.67;;;;;;;8.52;100.00;98793.84;4975048;28;20206;-61
2021/12/28 04:39:59;;;;;;;16.50;2.60;;;;;;;8.49;100.00;98795.00;4971911;28;20225;-61
2021/12/28 04:42:29;;;;;;;12.47;2.50;;;;;;;8.46;100.00;98795.34;4974391;28;20257;-62
2021/12/28 04:44:57;;;;;;;11.47;2.20;;;;;;;8.49;100.00;98792.34;4973792;28;20217;-61
2021/12/28 04:47:25;;;;;;;13.17;3.17;;;;;;;8.34;100.00;98788.00;4976078;28;20238;-60
2021/12/28 04:49:53;;;;;;;9.40;2.07;;;;;;;8.32;100.00;98788.19;4974474;28;20302;-62
2021/12/28 04:52:22;;;;;;;12.73;1.87;;;;;;;8.40;100.00;98790.75;4973038;28;20237;-62
2021/12/28 04:54:50;;;;;;;10.33;2.07;;;;;;;8.39;100.00;98797.03;4974626;28;20337;-62
2021/12/28 04:57:18;;;;;;;12.57;2.37;;;;;;;8.39;100.00;98797.03;4958726;28;20249;-60
2021/12/28 04:59:46;;;;;;;12.60;2.10;;;;;;;8.33;100.00;98795.09;4974729;28;20250;-61
2021/12/28 05:02:13;;;;;;;12.37;2.23;;;;;;;8.40;100.00;98800.50;4973944;28;20286;-61
2021/12/28 05:04:41;;;;;;;14.50;2.67;;;;;;;8.31;100.00;98797.09;4973156;28;20215;-61
2021/12/28 05:07:09;;;;;;;12.27;2.13;;;;;;;8.25;100.00;98798.59;4972553;28;20212;-61
2021/12/28 05:09:38;;;;;;;8.57;2.43;;;;;;;8.19;100.00;98801.91;4968262;28;20692;-61
2021/12/28 05:12:07;;;;;;;17.07;3.27;;;;;;;8.22;100.00;98796.28;4975025;28;20293;-61
2021/12/28 05:14:39;;;;;;;16.57;2.93;;;;;;;8.23;100.00;98800.56;4965948;28;20660;-61
2021/12/28 05:17:08;;;;;;;20.27;7.43;;;;;;;8.25;100.00;98797.75;4968294;28;20254;-61
2021/12/28 05:19:37;;;;;;;10.03;2.23;;;;;;;8.14;100.00;98795.50;4972707;28;20215;-61
2021/12/28 05:22:08;;;;;;;14.90;2.20;;;;;;;8.17;100.00;98779.34;4972320;28;20226;-62
2021/12/28 05:24:36;;;;;;;8.97;2.00;;;;;;;8.16;100.00;98767.13;4973444;28;20274;-60
2021/12/28 05:27:06;;;;;;;9.07;2.33;;;;;;;8.08;100.00;98780.38;4971261;28;20250;-62
2021/12/28 05:29:34;;;;;;;12.07;2.33;;;;;;;8.09;100.00;98772.25;4973151;28;20326;-62
2021/12/28 05:32:02;;;;;;;17.27;3.30;;;;;;;8.05;100.00;98764.88;4971180;28;20211;-62
2021/12/28 05:34:30;;;;;;;12.17;2.07;;;;;;;8.02;100.00;98758.09;4974892;28;20207;-64
2021/12/28 05:36:58;;;;;;;13.63;2.50;;;;;;;8.07;100.00;98752.31;4974282;28;20646;-61
2021/12/28 05:39:25;;;;;;;9.63;2.10;;;;;;;8.05;100.00;98738.47;4971853;28;20318;-61
2021/12/28 05:41:53;;;;;;;13.23;2.67;;;;;;;8.02;100.00;98728.25;4970587;28;20231;-60
2021/12/28 05:44:23;;;;;;;13.93;2.03;;;;;;;8.05;100.00;98730.56;4969105;28;20260;-61
2021/12/28 05:46:52;;;;;;;7.00;2.00;;;;;;;8.08;100.00;98727.56;4970448;28;20245;-61
2021/12/28 05:49:19;;;;;;;13.03;2.03;;;;;;;8.07;100.00;98724.13;4974545;28;20199;-62
2021/12/28 05:51:48;;;;;;;8.87;2.20;;;;;;;8.14;100.00;98718.94;4972019;28;20215;-62
2021/12/28 05:54:17;;;;;;;14.73;3.70;;;;;;;8.22;100.00;98726.81;4968626;28;20253;-60
2021/12/28 05:56:45;;;;;;;11.33;2.00;;;;;;;8.17;100.00;98724.72;4970834;28;20305;-61
2021/12/28 05:59:13;;;;;;;12.40;1.93;;;;;;;8.19;100.00;98721.88;4973655;28;20296;-62
2021/12/28 06:01:42;;;;;;;14.23;3.10;;;;;;;8.22;100.00;98724.16;4971020;28;20234;-61
2021/12/28 06:04:11;;;;;;;14.10;2.23;;;;;;;8.23;100.00;98726.66;4974907;28;20810;-62
2021/12/28 06:06:39;;;;;;;12.13;2.60;;;;;;;8.19;100.00;98717.41;4972732;28;20217;-61
2021/12/28 06:09:07;;;;;;;11.60;1.90;;;;;;;8.26;100.00;98712.28;4971918;28;20221;-61
2021/12/28 06:11:35;;;;;;;10.40;2.50;;;;;;;8.23;100.00;98702.06;4973543;28;20354;-61
2021/12/28 06:14:03;;;;;;;13.73;3.00;;;;;;;8.27;100.00;98693.59;4972851;28;20214;-61
2021/12/28 06:16:32;;;;;;;9.70;3.03;;;;;;;8.30;100.00;98695.06;4970916;28;20207;-61
2021/12/28 06:19:01;;;;;;;12.03;2.60;;;;;;;8.25;100.00;98695.63;4971845;28;20297;-61
2021/12/28 06:21:30;;;;;;;16.63;3.17;;;;;;;8.28;100.00;98702.34;4972461;28;20792;-61
2021/12/28 06:23:59;;;;;;;18.47;3.63;;;;;;;8.28;100.00;98694.41;4971767;28;20246;-61
2021/12/28 06:26:27;;;;;;;18.43;3.90;;;;;;;8.21;100.00;98696.13;4970722;28;20246;-62
2021/12/28 06:28:55;;;;;;;13.43;3.07;;;;;;;8.20;100.00;98683.91;4972494;28;20309;-62
2021/12/28 06:31:23;;;;;;;15.67;2.80;;;;;;;8.24;100.00;98693.13;4971406;28;20305;-62
2021/12/28 06:33:51;;;;;;;16.20;3.47;;;;;;;8.27;100.00;98692.78;4971286;28;20563;-61
2021/12/28 06:36:20;;;;;;;17.90;3.47;;;;;;;8.28;100.00;98691.78;4973235;28;20221;-60
2021/12/28 06:38:48;;;;;;;12.40;2.77;;;;;;;8.26;100.00;98691.16;4970776;28;20217;-60
2021/12/28 06:41:16;;;;;;;14.20;4.20;;;;;;;8.34;100.00;98691.13;4971673;28;20249;-61
2021/12/28 06:43:44;;;;;;;14.70;3.77;;;;;;;8.35;100.00;98681.38;4969809;28;20318;-61
2021/12/28 06:46:11;;;;;;;12.43;3.60;;;;;;;8.32;100.00;98685.19;4971779;28;20311;-61
2021/12/28 06:48:40;;;;;;;11.87;3.23;;;;;;;8.34;100.00;98677.91;4973306;28;20217;-60
2021/12/28 06:51:07;;;;;;;12.57;2.57;;;;;;;8.41;100.00;98672.75;4971247;28;20661;-60
2021/12/28 06:53:36;;;;;;;10.87;3.10;;;;;;;8.32;100.00;98676.44;4969392;28;20206;-62
2021/12/28 06:56:05;;;;;;;11.97;3.07;;;;;;;8.35;100.00;98668.19;4970816;28;20726;-61
2021/12/28 06:58:33;;;;;;;15.47;3.73;;;;;;;8.36;100.00;98656.59;4970201;28;20703;-61
2021/12/28 07:01:01;;;;;;;12.27;3.37;;;;;;;8.39;100.00;98662.34;4971429;28;20619;-61
2021/12/28 07:03:29;;;;;;;10.77;3.40;;;;;;;8.32;100.00;98653.50;4970961;28;20231;-61
2021/12/28 07:05:57;;;;;;;11.87;2.70;;;;;;;8.35;100.00;98652.34;4971358;28;20222;-62
2021/12/28 07:08:25;;;;;;;17.37;3.37;;;;;;;8.42;100.00;98654.09;4971257;28;20303;-62
2021/12/28 07:10:54;;;;;;;9.93;2.60;;;;;;;8.45;100.00;98645.78;4969700;28;20219;-62
2021/12/28 07:13:22;;;;;;;7.30;2.40;;;;;;;8.44;100.00;98643.34;4971669;28;20251;-62
2021/12/28 07:15:54;;;;;;;11.07;2.77;;;;;;;8.49;100.00;98639.16;4971284;28;20466;-62
2021/12/28 07:18:22;;;;;;;5.97;1.87;;;;;;;8.48;100.00;98645.44;4970492;28;20525;-61
2021/12/28 07:20:50;;;;;;;6.33;1.70;;;;;;;8.46;100.00;98641.31;4969375;28;20221;-61
2021/12/28 07:23:18;;;;;;;5.77;1.30;;;;;;;8.48;100.00;98642.78;4973017;28;20756;-62
2021/12/28 07:25:46;;;;;;;10.97;1.70;;;;;;;8.43;100.00;98646.97;4972106;28;20233;-61
2021/12/28 07:28:16;;;;;;;8.37;1.40;;;;;;;8.40;100.00;98648.16;4970409;28;20215;-62
2021/12/28 07:30:45;;;;;;;8.83;2.13;;;;;;;8.41;100.00;98649.78;4968833;28;20225;-61
2021/12/28 07:33:13;;;;;;;10.27;1.80;;;;;;;8.38;100.00;98650.13;4968998;28;20306;-61
2021/12/28 07:35:41;;;;;;;9.27;1.97;;;;;;;8.36;100.00;98649.50;4970329;28;20306;-61
2021/12/28 07:38:09;;;;;;;9.77;1.50;;;;;;;8.35;100.00;98658.44;4972118;28;20207;-61
2021/12/28 07:40:36;;;;;;;7.63;1.80;;;;;;;8.37;100.00;98660.88;4968518;28;20242;-62
2021/12/28 07:43:04;;;;;;;6.63;1.93;;;;;;;8.36;100.00;98667.97;4962740;28;20237;-61
2021/12/28 07:45:34;;;;;;;4.73;1.67;;;;;;;8.32;100.00;98660.59;4957666;28;20240;-61
2021/12/28 07:48:02;;;;;;;7.77;1.73;;;;;;;8.34;100.00;98662.06;4969689;28;20303;-63
2021/12/28 07:50:29;;;;;;;12.37;2.43;;;;;;;8.30;100.00;98672.13;4971890;28;20217;-61
2021/12/28 07:52:57;;;;;;;8.67;1.87;;;;;;;8.39;100.00;98666.81;4969791;28;20305;-61
2021/12/28 07:55:25;;;;;;;9.73;2.00;;;;;;;8.43;100.00;98676.03;4969037;28;20309;-61
2021/12/28 07:57:53;;;;;;;5.50;1.73;;;;;;;8.34;100.00;98670.00;4971636;28;20279;-62
2021/12/28 08:00:22;;;;;;;7.73;1.67;;;;;;;8.35;100.00;98673.47;4970456;28;20224;-62
2021/12/28 08:02:52;;;;;;;7.30;1.73;;;;;;;8.34;100.00;98672.63;4970418;28;20703;-61
2021/12/28 08:05:20;;;;;;;5.53;1.60;;;;;;;8.33;100.00;98672.81;4968516;28;20230;-62
2021/12/28 08:07:48;;;;;;;6.23;1.77;;;;;;;8.37;100.00;98674.09;4968870;28;20225;-62
2021/12/28 08:10:17;;;;;;;6.43;1.60;;;;;;;8.43;100.00;98674.22;4969347;28;20217;-62
2021/12/28 08:12:47;;;;;;;8.93;2.07;;;;;;;8.45;100.00;98684.56;4952840;28;20294;-62
2021/12/28 08:15:15;;;;;;;11.07;1.57;;;;;;;8.47;100.00;98680.75;4969690;28;20596;-61
2021/12/28 08:17:42;;;;;;;10.67;1.73;;;;;;;8.37;100.00;98690.75;4968046;28;20704;-62
2021/12/28 08:20:14;;;;;;;5.40;1.73;;;;;;;8.37;100.00;98674.09;4970227;28;20349;-61
2021/12/28 08:22:43;;;;;;;8.87;1.97;;;;;;;8.41;100.00;98681.50;4968612;28;20278;-62
2021/12/28 08:25:14;;;;;;;5.90;1.90;;;;;;;8.46;100.00;98681.75;4970802;28;20700;-62
2021/12/28 08:27:42;;;;;;;10.63;2.23;;;;;;;8.45;100.00;98680.13;4969526;28;20307;-62
2021/12/28 08:30:12;;;;;;;6.67;1.77;;;;;;;8.45;100.00;98679.28;4962112;28;20698;-61
2021/12/28 08:32:40;;;;;;;9.50;1.80;;;;;;;8.45;100.00;98682.75;4969190;28;20211;-62
2021/12/28 08:35:09;;;;;;;4.53;1.90;;;;;;;8.45;100.00;98672.19;4968263;28;20720;-61
2021/12/28 08:37:38;;;;;;;7.00;1.97;;;;;;;8.47;100.00;98674.66;4967153;28;20210;-61
2021/12/28 08:40:09;;;;;;;9.17;3.37;;;;;;;8.41;100.00;98681.50;4970460;28;20234;-61
2021/12/28 08:42:37;;;;;;;10.17;2.40;;;;;;;8.54;100.00;98679.03;4968305;28;20242;-62
2021/12/28 08:45:06;;;;;;;8.13;2.40;;;;;;;8.43;100.00;98674.22;4969490;28;20618;-62
2021/12/28 08:47:35;;;;;;;4.33;1.80;;;;;;;8.46;100.00;98679.13;4967832;28;20226;-62
2021/12/28 08:50:06;;;;;;;8.07;1.70;;;;;;;8.50;100.00;98691.00;4970250;28;20255;-62
2021/12/28 08:52:33;;;;;;;4.27;1.93;;;;;;;8.60;100.00;98686.28;4969955;28;20245;-62
2021/12/28 08:55:04;;;;;;;7.93;1.80;;;;;;;8.56;100.00;98687.63;4969408;28;20579;-62
2021/12/28 08:57:32;;;;;;;6.43;1.60;;;;;;;8.55;100.00;98693.91;4969341;28;20640;-62
2021/12/28 09:00:00;;;;;;;6.73;1.80;;;;;;;8.56;100.00;98695.56;4968242;28;20665;-63
2021/12/28 09:02:27;;;;;;;4.67;1.40;;;;;;;8.65;100.00;98694.47;4969409;28;20211;-64
2021/12/28 09:04:55;;;;;;;4.37;1.50;;;;;;;8.47;100.00;98707.19;4970355;28;20264;-61
2021/12/28 09:07:24;;;;;;;3.60;1.20;;;;;;;8.65;100.00;98705.06;4967621;28;20304;-61
2021/12/28 09:09:59;;;;;;;6.27;1.63;;;;;;;8.58;100.00;98711.22;4968050;28;20223;-62
2021/12/28 09:12:28;;;;;;;4.30;1.30;;;;;;;8.62;100.00;98709.84;4967609;28;20848;-60
2021/12/28 09:14:56;;;;;;;3.70;1.20;;;;;;;8.68;100.00;98703.88;4968422;28;20234;-62
2021/12/28 09:17:24;;;;;;;4.27;1.43;;;;;;;8.81;100.00;98708.53;4970953;28;20591;-62
2021/12/28 09:19:51;;;;;;;5.33;1.47;;;;;;;8.77;100.00;98712.56;4971196;28;20306;-62
2021/12/28 09:22:19;;;;;;;4.33;1.10;;;;;;;8.81;100.00;98711.19;4965214;28;20211;-62
2021/12/28 09:24:47;;;;;;;3.93;1.60;;;;;;;8.80;100.00;98713.00;4960756;28;20234;-62
2021/12/28 09:27:18;;;;;;;5.27;1.40;;;;;;;8.89;100.00;98719.03;4973579;28;20309;-62
2021/12/28 09:29:47;;;;;;;3.10;1.20;;;;;;;8.87;100.00;98726.34;4977178;28;20226;-62
2021/12/28 09:32:17;;;;;;;7.13;2.07;;;;;;;8.94;100.00;98724.63;4973149;28;20563;-62
2021/12/28 09:34:50;;;;;;;6.70;2.53;;;;;;;9.07;100.00;98738.03;4971487;28;20621;-62
2021/12/28 09:37:19;;;;;;;2.40;1.37;;;;;;;9.09;100.00;98730.75;4971071;28;20301;-62
2021/12/28 09:39:47;;;;;;;4.93;1.47;;;;;;;9.04;100.00;98736.59;4972392;28;20649;-61
2021/12/28 09:42:15;;;;;;;2.60;1.20;;;;;;;9.09;100.00;98743.97;4973361;28;20216;-62
2021/12/28 09:44:47;;;;;;;3.73;1.63;;;;;;;9.10;100.00;98750.91;4972528;28;20313;-62
2021/12/28 09:47:18;;;;;;;4.10;1.60;;;;;;;9.20;100.00;98746.16;4970181;28;20736;-62
2021/12/28 09:49:47;;;;;;;4.13;1.63;;;;;;;9.13;100.00;98734.69;4960276;28;20226;-62
2021/12/28 09:52:16;;;;;;;4.97;1.47;;;;;;;9.13;100.00;98739.97;4956373;28;20208;-62
2021/12/28 09:54:44;;;;;;;4.27;1.30;;;;;;;9.16;100.00;98736.94;4973956;28;20654;-61
2021/12/28 09:57:15;;;;;;;13.13;8.00;;;;;;;9.22;100.00;98743.34;4970601;28;20277;-62
2021/12/28 09:59:42;;;;;;;5.20;2.90;;;;;;;9.13;100.00;98739.97;4971740;28;20633;-62
2021/12/28 10:02:11;;;;;;;2.67;1.10;;;;;;;9.19;100.00;98746.34;4970119;28;20669;-61
2021/12/28 10:04:52;;;;;;;2.13;0.87;;;;;;;9.17;100.00;98741.22;4972842;28;20223;-62
2021/12/28 10:07:22;;;;;;;2.10;0.80;;;;;;;9.14;100.00;98738.16;4983215;28;20628;-61
2021/12/28 10:09:50;;;;;;;1.27;0.70;;;;;;;9.23;100.00;98739.72;4971829;28;20218;-61
2021/12/28 10:12:27;;;;;;;1.87;0.80;;;;;;;9.20;100.00;98743.53;4971926;28;20218;-63
2021/12/28 10:14:58;;;;;;;1.87;0.70;;;;;;;9.24;100.00;98742.16;4970229;28;20215;-62
2021/12/28 10:17:29;;;;;;;1.93;0.90;;;;;;;9.29;100.00;98738.97;4971222;28;20243;-61
2021/12/28 10:20:00;;;;;;;1.53;1.10;;;;;;;9.38;100.00;98740.53;4972810;28;20303;-61
2021/12/28 10:22:31;;;;;;;2.93;1.30;;;;;;;9.46;100.00;98740.44;4965085;28;20250;-62
2021/12/28 10:25:02;;;;;;;3.40;1.30;;;;;;;9.50;100.00;98731.09;4970029;28;20330;-62
2021/12/28 10:27:32;;;;;;;3.13;1.10;;;;;;;9.51;100.00;98738.03;4969764;28;20316;-62
2021/12/28 10:30:10;;;;;;;4.23;1.20;;;;;;;9.57;100.00;98732.03;4968527;28;20234;-62
2021/12/28 10:32:39;;;;;;;4.00;0.93;;;;;;;9.55;100.00;98741.16;4957902;28;20247;-60
2021/12/28 10:35:11;;;;;;;2.13;1.27;;;;;;;9.58;100.00;98740.81;4971092;28;20213;-62
2021/12/28 10:37:41;;;;;;;2.40;1.10;;;;;;;9.72;100.00;98737.31;4969852;28;20220;-61
2021/12/28 10:40:12;;;;;;;3.20;1.20;;;;;;;9.85;100.00;98734.81;4971508;28;20219;-61
2021/12/28 10:42:52;;;;;;;2.27;1.23;;;;;;;9.80;100.00;98753.09;4969059;28;20217;-60
2021/12/28 10:45:22;;;;;;;3.03;1.30;;;;;;;9.79;100.00;98741.69;4971007;28;20290;-61
2021/12/28 10:47:52;;;;;;;3.47;1.30;;;;;;;9.82;100.00;98738.66;4971438;28;20208;-61
2021/12/28 10:50:36;;;;;;;4.60;1.50;;;;;;;9.85;100.00;98748.03;4971042;28;20443;-61
2021/12/28 10:53:19;;;;;;;3.07;1.40;;;;;;;9.92;100.00;98738.38;4970768;28;20298;-62
2021/12/28 10:55:50;;;;;;;2.70;1.67;;;;;;;9.92;100.00;98746.31;4969949;28;20210;-62
2021/12/28 10:58:33;;;;;;;3.27;1.70;;;;;;;10.06;100.00;98734.88;4971253;28;20244;-61
2021/12/28 11:01:06;;;;;;;4.30;2.20;;;;;;;10.15;100.00;98725.81;4970598;28;20293;-62
2021/12/28 11:03:36;;;;;;;3.87;1.90;;;;;;;10.23;100.00;98732.03;4969760;28;20710;-61
2021/12/28 11:06:12;;;;;;;5.67;2.60;;;;;;;10.19;100.00;98728.94;4971851;28;20328;-62
2021/12/28 11:08:42;;;;;;;5.93;2.60;;;;;;;10.38;100.00;98738.09;4970963;28;20210;-62
2021/12/28 11:11:12;;;;;;;4.17;2.27;;;;;;;10.40;100.00;98728.13;4969321;28;20297;-60
2021/12/28 11:13:40;;;;;;;8.30;3.20;;;;;;;10.38;100.00;98724.84;4967268;28;20561;-62
2021/12/28 11:16:10;;;;;;;4.87;2.70;;;;;;;10.37;100.00;98718.75;4969976;28;20250;-62
2021/12/28 11:18:40;;;;;;;4.43;2.30;;;;;;;10.42;100.00;98710.22;4973244;28;20214;-61
2021/12/28 11:21:19;;;;;;;4.20;2.37;;;;;;;10.46;100.00;98701.69;4971093;28;20333;-61
2021/12/28 11:23:50;;;;;;;4.60;1.30;;;;;;;10.49;100.00;98705.78;4969658;28;20301;-62
2021/12/28 11:26:21;;;;;;;3.97;1.40;;;;;;;10.55;100.00;98700.53;4969001;28;20297;-61
2021/12/28 11:29:01;;;;;;;4.80;1.03;;;;;;;10.69;100.00;98696.19;4969148;28;20235;-62
2021/12/28 11:31:34;;;;;;;2.20;0.67;;;;;;;10.80;100.00;98687.72;4969411;28;20306;-62
2021/12/28 11:34:06;;;;;;;2.83;1.10;;;;;;;10.76;100.00;98686.44;4970676;28;20322;-62
2021/12/28 11:36:40;;;;;;;2.70;0.93;;;;;;;10.70;100.00;98689.88;4969246;28;20218;-62